Saint Catharine, Missouri
Current Conditions -  °F | °C
As of 2:27 AM on Monday 22 Dec 2014 (Local Time) from KIRK Reporting Station
Overcast Overcast  
Wind Chill: 31°   Ceiling: 2300
Heat Index: 39°   Visibility: 10mi
Dew Point: 36°   Wind: 13mph
Humidity: 89%   Direction: 150°SSE
Pressure: 29.78"   Gusts: NA
Location:  39.774°N, 93.0696°W
Report Text: KIRK 220827Z AUTO 15011KT 10SM BKN023 OVC045 04/02 A2978 RMK AO2 T00390022
Loading
Personal Weather Stations






























Interactive Weather Map New forecast layout! Learn more

10-Day Weather Forecast

Advertisements
Track Severe Weather on mobile